createdAt,value
2022-09-19T00:01:12.519Z,102004.66
2022-09-19T00:03:41.416Z,102016.91
2022-09-19T00:06:09.374Z,102021.13
2022-09-19T00:08:38.240Z,102015.56
2022-09-19T00:11:07.081Z,102015.56
2022-09-19T00:13:36.256Z,102020.09
2022-09-19T00:16:03.673Z,102023.81
2022-09-19T00:18:31.144Z,102017.47
2022-09-19T00:20:57.630Z,102015.38
2022-09-19T00:23:42.650Z,102016.72
2022-09-19T00:26:15.667Z,102024.19
2022-09-19T00:28:46.412Z,102029.50
2022-09-19T00:31:18.239Z,102019.16
2022-09-19T00:33:47.377Z,102023.97
2022-09-19T00:36:14.966Z,102026.94
2022-09-19T00:38:42.145Z,102026.41
2022-09-19T00:41:09.372Z,102024.31
2022-09-19T00:43:52.508Z,102015.03
2022-09-19T00:46:20.579Z,102021.16
2022-09-19T00:48:51.702Z,102027.28
2022-09-19T00:51:28.745Z,102027.03
2022-09-19T00:53:55.467Z,102022.75
2022-09-19T00:56:23.897Z,102027.28
2022-09-19T00:58:51.437Z,102027.75
2022-09-19T01:01:18.406Z,102026.16
2022-09-19T01:03:47.147Z,102026.16
2022-09-19T01:06:36.979Z,102028.81
2022-09-19T01:09:12.754Z,102037.59
2022-09-19T01:12:02.943Z,102031.72
2022-09-19T01:14:48.655Z,102031.97
2022-09-19T01:17:21.926Z,102037.81
2022-09-19T01:20:29.408Z,102033.81
2022-09-19T01:23:17.483Z,102030.84
2022-09-19T01:25:55.768Z,102029.50
2022-09-19T01:28:30.191Z,102035.31
2022-09-19T01:31:18.317Z,102033.97
2022-09-19T01:33:53.160Z,102034.22
2022-09-19T01:36:22.714Z,102040.59
2022-09-19T01:38:52.975Z,102034.72
2022-09-19T01:41:22.320Z,102038.69
2022-09-19T01:43:50.534Z,102041.09
2022-09-19T01:46:43.477Z,102048.25
2022-09-19T01:49:47.558Z,102048.00
2022-09-19T01:52:26.106Z,102049.13
2022-09-19T01:55:10.406Z,102057.09
2022-09-19T01:57:43.413Z,102057.63
2022-09-19T02:00:17.259Z,102066.41
2022-09-19T02:03:04.807Z,102061.63
2022-09-19T02:05:53.562Z,102058.47
2022-09-19T02:08:24.529Z,102055.25
2022-09-19T02:10:56.074Z,102056.63
2022-09-19T02:13:26.216Z,102064.34
2022-09-19T02:16:01.941Z,102053.97
2022-09-19T02:18:36.654Z,102061.66
2022-09-19T02:21:07.682Z,102059.28
2022-09-19T02:23:40.828Z,102061.66
2022-09-19T02:26:10.773Z,102053.44
2022-09-19T02:28:42.981Z,102062.78
2022-09-19T02:31:11.036Z,102053.75
2022-09-19T02:33:38.783Z,102070.81
2022-09-19T02:36:32.255Z,102070.56
2022-09-19T02:39:09.867Z,102065.78
2022-09-19T02:41:50.794Z,102063.69
2022-09-19T02:44:22.854Z,102066.06
2022-09-19T02:46:58.554Z,102069.28
2022-09-19T02:49:39.829Z,102066.13
2022-09-19T02:52:16.714Z,102073.28
2022-09-19T02:54:48.342Z,102077.00
2022-09-19T02:57:19.055Z,102073.56
2022-09-19T02:59:48.588Z,102075.38
2022-09-19T03:02:20.836Z,102071.16
2022-09-19T03:04:54.507Z,102074.03
2022-09-19T03:07:29.357Z,102076.97
2022-09-19T03:10:03.628Z,102071.13
2022-09-19T03:12:38.867Z,102075.88
2022-09-19T03:15:07.451Z,102070.25
2022-09-19T03:17:44.369Z,102076.88
2022-09-19T03:20:13.936Z,102068.59
2022-09-19T03:22:41.441Z,102070.94
2022-09-19T03:25:10.047Z,102077.59
2022-09-19T03:27:38.094Z,102077.03
2022-09-19T03:30:13.626Z,102082.59
2022-09-19T03:32:42.361Z,102092.41
2022-09-19T03:35:11.259Z,102087.91
2022-09-19T03:37:38.088Z,102090.00
2022-09-19T03:40:05.082Z,102093.22
2022-09-19T03:42:35.826Z,102095.88
2022-09-19T03:45:04.289Z,102095.88
2022-09-19T03:47:30.940Z,102101.19
2022-09-19T03:49:59.307Z,102105.47
2022-09-19T03:52:29.788Z,102106.25
2022-09-19T03:54:57.792Z,102110.78
2022-09-19T03:57:24.273Z,102113.44
2022-09-19T03:59:50.764Z,102112.13
2022-09-19T04:02:17.372Z,102105.25
2022-09-19T04:04:43.788Z,102105.81
2022-09-19T04:07:10.300Z,102102.63
2022-09-19T04:09:36.808Z,102110.59
2022-09-19T04:12:06.366Z,102111.44
2022-09-19T04:14:34.354Z,102103.47
2022-09-19T04:17:21.404Z,102109.81
2022-09-19T04:19:49.787Z,102103.72
2022-09-19T04:22:19.975Z,102111.91
2022-09-19T04:24:46.700Z,102113.00
2022-09-19T04:27:17.530Z,102113.22
2022-09-19T04:29:46.882Z,102109.47
2022-09-19T04:32:15.789Z,102110.78
2022-09-19T04:34:44.224Z,102113.69
2022-09-19T04:37:11.619Z,102109.91
2022-09-19T04:39:38.603Z,102125.31
2022-09-19T04:42:05.862Z,102119.44
2022-09-19T04:44:32.409Z,102113.81
2022-09-19T04:46:59.933Z,102122.84
2022-09-19T04:49:39.467Z,102120.44
2022-09-19T04:52:12.095Z,102128.63
2022-09-19T04:54:38.896Z,102136.63
2022-09-19T04:57:06.881Z,102146.19
2022-09-19T04:59:34.523Z,102144.03
2022-09-19T05:02:02.614Z,102156.28
2022-09-19T05:04:29.758Z,102157.31
2022-09-19T05:06:56.444Z,102147.75
2022-09-19T05:09:23.653Z,102152.81
2022-09-19T05:11:50.667Z,102155.47
2022-09-19T05:14:17.795Z,102155.47
2022-09-19T05:16:44.510Z,102152.81
2022-09-19T05:19:11.004Z,102157.31
2022-09-19T05:21:38.009Z,102157.31
2022-09-19T05:24:04.926Z,102160.22
2022-09-19T05:26:31.371Z,102158.63
2022-09-19T05:28:57.847Z,102162.34
2022-09-19T05:31:26.104Z,102168.44
2022-09-19T05:33:52.585Z,102171.34
2022-09-19T05:36:19.512Z,102163.59
2022-09-19T05:38:47.506Z,102171.84
2022-09-19T05:41:14.017Z,102172.88
2022-09-19T05:43:40.571Z,102172.31
2022-09-19T05:46:07.042Z,102178.69
2022-09-19T05:48:33.834Z,102177.63
2022-09-19T05:51:00.343Z,102178.69
2022-09-19T05:53:45.560Z,102173.63
2022-09-19T05:56:11.980Z,102179.50
2022-09-19T05:58:38.808Z,102179.50
2022-09-19T06:01:10.964Z,102177.41
2022-09-19T06:03:39.962Z,102179.53
2022-09-19T06:06:12.898Z,102181.72
2022-09-19T06:08:40.802Z,102183.63
2022-09-19T06:11:08.304Z,102187.63
2022-09-19T06:13:53.766Z,102187.16
2022-09-19T06:16:21.221Z,102184.81
2022-09-19T06:18:48.684Z,102198.94
2022-09-19T06:21:15.243Z,102192.88
2022-09-19T06:23:42.539Z,102194.00
2022-09-19T06:26:09.465Z,102200.97
2022-09-19T06:28:36.306Z,102204.00
2022-09-19T06:31:04.426Z,102208.13
2022-09-19T06:33:32.427Z,102206.97
2022-09-19T06:36:00.480Z,102200.63
2022-09-19T06:38:28.543Z,102200.94
2022-09-19T06:40:55.140Z,102204.44
2022-09-19T06:43:23.061Z,102210.09
2022-09-19T06:45:49.754Z,102205.38
2022-09-19T06:48:16.849Z,102207.56
2022-09-19T06:50:47.787Z,102215.09
2022-09-19T06:53:15.259Z,102216.47
2022-09-19T06:55:46.850Z,102222.38
2022-09-19T06:58:14.673Z,102214.97
2022-09-19T07:00:41.475Z,102222.78
2022-09-19T07:03:10.829Z,102215.63
2022-09-19T07:05:40.448Z,102216.22
2022-09-19T07:08:07.305Z,102214.16
2022-09-19T07:10:36.338Z,102222.19
2022-09-19T07:13:04.413Z,102225.19
2022-09-19T07:15:36.125Z,102223.38
2022-09-19T07:18:04.178Z,102221.25
2022-09-19T07:20:30.698Z,102222.91
2022-09-19T07:23:16.169Z,102220.28
2022-09-19T07:25:44.681Z,102218.72
2022-09-19T07:28:15.224Z,102217.94
2022-09-19T07:30:44.514Z,102227.28
2022-09-19T07:33:13.972Z,102227.28
2022-09-19T07:35:43.777Z,102232.66
2022-09-19T07:38:15.650Z,102223.84
2022-09-19T07:40:43.696Z,102231.84
2022-09-19T07:43:14.314Z,102239.88
2022-09-19T07:45:47.507Z,102234.00
2022-09-19T07:48:15.200Z,102236.97
2022-09-19T07:50:41.912Z,102234.03
2022-09-19T07:53:15.139Z,102248.19
2022-09-19T07:55:43.425Z,102249.22
2022-09-19T07:58:12.121Z,102256.16
2022-09-19T08:00:40.380Z,102255.38
2022-09-19T08:03:12.784Z,102258.84
2022-09-19T08:05:41.702Z,102253.50
2022-09-19T08:08:11.095Z,102265.25
2022-09-19T08:10:38.449Z,102259.63
2022-09-19T08:13:07.957Z,102260.69
2022-09-19T08:15:35.960Z,102265.81
2022-09-19T08:18:05.825Z,102275.41
2022-09-19T08:20:35.024Z,102267.13
2022-09-19T08:23:05.394Z,102272.97
2022-09-19T08:25:35.919Z,102279.91
2022-09-19T08:28:04.635Z,102272.66
2022-09-19T08:30:32.437Z,102285.72
2022-09-19T08:33:01.375Z,102277.69
2022-09-19T08:35:29.458Z,102280.38
2022-09-19T08:37:57.635Z,102278.50
2022-09-19T08:40:35.958Z,102277.63
2022-09-19T08:43:19.871Z,102291.00
2022-09-19T08:46:04.742Z,102295.06
2022-09-19T08:48:45.012Z,102302.31
2022-09-19T08:51:37.332Z,102311.72
2022-09-19T08:54:21.582Z,102317.88
2022-09-19T08:56:48.114Z,102314.91
2022-09-19T08:59:18.403Z,102320.25
2022-09-19T09:01:50.339Z,102312.25
2022-09-19T09:04:37.496Z,102314.91
2022-09-19T09:07:17.184Z,102312.50
2022-09-19T09:10:04.450Z,102315.19
2022-09-19T09:12:46.273Z,102309.03
2022-09-19T09:15:43.266Z,102302.63
2022-09-19T09:18:35.841Z,102318.91
2022-09-19T09:21:14.936Z,102313.84
2022-09-19T09:23:49.497Z,102312.78
2022-09-19T09:26:29.158Z,102313.59
2022-09-19T09:29:15.186Z,102305.59
2022-09-19T09:31:49.359Z,102313.31
2022-09-19T09:34:37.723Z,102311.44
2022-09-19T09:37:19.273Z,102320.78
2022-09-19T09:40:10.394Z,102319.72
2022-09-19T09:43:04.038Z,102324.50
2022-09-19T09:45:36.659Z,102315.63
2022-09-19T09:48:30.582Z,102321.75
2022-09-19T09:51:06.645Z,102312.31
2022-09-19T09:53:59.079Z,102310.13
2022-09-19T09:56:35.203Z,102310.59
2022-09-19T09:59:07.805Z,102317.53
2022-09-19T10:02:06.572Z,102320.44
2022-09-19T10:04:42.288Z,102312.94
2022-09-19T10:07:45.603Z,102318.25
2022-09-19T10:10:20.266Z,102328.81
2022-09-19T10:13:00.859Z,102324.94
2022-09-19T10:15:30.157Z,102328.25
2022-09-19T10:18:08.460Z,102329.63
2022-09-19T10:20:42.291Z,102320.81
2022-09-19T10:23:15.633Z,102327.25
2022-09-19T10:25:42.211Z,102335.81
2022-09-19T10:28:28.179Z,102337.88
2022-09-19T10:30:58.925Z,102337.13
2022-09-19T10:33:45.585Z,102331.78
2022-09-19T10:36:22.468Z,102337.63
2022-09-19T10:38:59.627Z,102343.75
2022-09-19T10:41:29.760Z,102342.69
2022-09-19T10:44:01.706Z,102344.81
2022-09-19T10:46:36.992Z,102345.56
2022-09-19T10:49:22.876Z,102355.75
2022-09-19T10:51:52.597Z,102343.97
2022-09-19T10:54:39.589Z,102343.94
2022-09-19T10:57:27.163Z,102346.88
2022-09-19T11:00:03.573Z,102347.09
2022-09-19T11:02:30.114Z,102340.91
2022-09-19T11:05:02.105Z,102345.19
2022-09-19T11:07:32.388Z,102345.72
2022-09-19T11:10:05.268Z,102341.41
2022-09-19T11:12:32.434Z,102332.53
2022-09-19T11:15:01.088Z,102335.44
2022-09-19T11:17:42.662Z,102334.03
2022-09-19T11:20:17.390Z,102323.78
2022-09-19T11:23:29.096Z,102331.16
2022-09-19T11:26:31.125Z,102326.19
2022-09-19T11:29:19.671Z,102331.47
2022-09-19T11:35:26.635Z,102334.03
2022-09-19T11:41:15.312Z,102330.97
2022-09-19T11:44:03.521Z,102341.69
2022-09-19T11:46:50.238Z,102343.34
2022-09-19T11:49:29.169Z,102336.22
2022-09-19T11:52:27.583Z,102332.53
2022-09-19T11:55:14.751Z,102345.72
2022-09-19T11:57:46.227Z,102342.00
2022-09-19T12:00:20.127Z,102344.41
2022-09-19T12:03:10.975Z,102340.13
2022-09-19T12:05:50.992Z,102339.91
2022-09-19T12:08:20.673Z,102345.00
2022-09-19T12:11:06.377Z,102336.72
2022-09-19T12:13:45.433Z,102338.28
2022-09-19T12:16:25.978Z,102340.19
2022-09-19T12:19:01.952Z,102338.34
2022-09-19T12:21:36.422Z,102333.78
2022-09-19T12:24:25.757Z,102322.72
2022-09-19T12:26:59.564Z,102320.50
2022-09-19T12:29:38.173Z,102323.06
2022-09-19T12:32:16.375Z,102322.03
2022-09-19T12:35:00.665Z,102333.28
2022-09-19T12:37:45.852Z,102343.94
2022-09-19T12:40:49.722Z,102343.69
2022-09-19T12:43:53.539Z,102353.44
2022-09-19T12:46:30.472Z,102348.38
2022-09-19T12:49:05.922Z,102352.94
2022-09-19T12:51:57.010Z,102352.16
2022-09-19T12:54:45.350Z,102347.09
2022-09-19T12:57:22.849Z,102352.72
2022-09-19T12:59:51.341Z,102353.78
2022-09-19T13:02:22.415Z,102350.03
2022-09-19T13:05:00.281Z,102352.41
2022-09-19T13:07:36.820Z,102357.47
2022-09-19T13:10:18.389Z,102354.22
2022-09-19T13:13:06.044Z,102354.72
2022-09-19T13:15:40.748Z,102357.09
2022-09-19T13:18:32.711Z,102361.66
2022-09-19T13:21:19.431Z,102363.75
2022-09-19T13:23:53.465Z,102365.28
2022-09-19T13:26:33.222Z,102364.25
2022-09-19T13:29:01.986Z,102372.88
2022-09-19T13:31:57.539Z,102372.38
2022-09-19T13:34:38.302Z,102367.59
2022-09-19T13:37:46.614Z,102370.81
2022-09-19T13:40:30.881Z,102367.84
2022-09-19T13:43:30.097Z,102361.97
2022-09-19T13:46:06.431Z,102365.44
2022-09-19T13:48:53.996Z,102363.00
2022-09-19T13:51:33.492Z,102362.75
2022-09-19T13:54:32.052Z,102364.59
2022-09-19T13:57:04.346Z,102358.41
2022-09-19T13:59:36.220Z,102358.59
2022-09-19T14:02:05.975Z,102352.94
2022-09-19T14:04:59.431Z,102347.28
2022-09-19T14:10:23.886Z,102344.03
2022-09-19T14:12:56.638Z,102342.69
2022-09-19T14:15:49.964Z,102348.56
2022-09-19T14:18:16.726Z,102337.56
2022-09-19T14:20:46.190Z,102332.19
2022-09-19T14:23:13.249Z,102332.66
2022-09-19T14:25:40.137Z,102338.47
2022-09-19T14:28:28.159Z,102345.66
2022-09-19T14:31:25.286Z,102346.41
2022-09-19T14:34:23.070Z,102345.84
2022-09-19T14:37:09.376Z,102352.75
2022-09-19T14:39:50.581Z,102375.50
2022-09-19T14:42:48.937Z,102372.00
2022-09-19T14:45:39.974Z,102379.66
2022-09-19T14:48:29.662Z,102382.72
2022-09-19T14:50:58.721Z,102381.97
2022-09-19T14:53:30.307Z,102387.91
2022-09-19T14:56:17.724Z,102381.09
2022-09-19T14:58:51.488Z,102364.53
2022-09-19T15:01:28.740Z,102359.47
2022-09-19T15:04:01.142Z,102362.44
2022-09-19T15:06:30.529Z,102370.47
2022-09-19T15:08:57.856Z,102364.59
2022-09-19T15:11:25.366Z,102361.38
2022-09-19T15:13:52.494Z,102364.84
2022-09-19T15:16:19.296Z,102362.19
2022-09-19T15:18:49.688Z,102357.63
2022-09-19T15:21:25.110Z,102351.97
2022-09-19T15:23:58.742Z,102358.13
2022-09-19T15:26:29.077Z,102364.78
2022-09-19T15:28:55.596Z,102360.47
2022-09-19T15:31:24.459Z,102356.75
2022-09-19T15:34:02.601Z,102358.59
2022-09-19T15:36:31.337Z,102362.59
2022-09-19T15:38:59.036Z,102360.97
2022-09-19T15:41:28.447Z,102358.28
2022-09-19T15:43:58.022Z,102366.06
2022-09-19T15:46:24.656Z,102359.91
2022-09-19T15:48:57.899Z,102369.00
2022-09-19T15:51:33.405Z,102357.22
2022-09-19T15:54:01.909Z,102363.38
2022-09-19T15:56:28.751Z,102357.75
2022-09-19T15:59:00.414Z,102368.16
2022-09-19T16:01:30.169Z,102364.97
2022-09-19T16:04:18.179Z,102363.34
2022-09-19T16:07:09.499Z,102360.09
2022-09-19T16:09:52.140Z,102360.34
2022-09-19T16:12:21.394Z,102367.81
2022-09-19T16:14:57.689Z,102362.47
2022-09-19T16:17:27.119Z,102364.09
2022-09-19T16:19:56.741Z,102362.19
2022-09-19T16:22:25.744Z,102367.28
2022-09-19T16:25:03.664Z,102369.97
2022-09-19T16:27:33.850Z,102364.59
2022-09-19T16:30:03.005Z,102364.59
2022-09-19T16:32:31.126Z,102370.75
2022-09-19T16:35:01.698Z,102374.22
2022-09-19T16:37:39.999Z,102375.06
2022-09-19T16:40:20.532Z,102379.34
2022-09-19T16:42:47.521Z,102382.81
2022-09-19T16:45:25.064Z,102376.66
2022-09-19T16:47:52.276Z,102378.53
2022-09-19T16:50:24.951Z,102385.75
2022-09-19T16:52:52.289Z,102385.22
2022-09-19T16:55:42.298Z,102391.38
2022-09-19T16:58:15.879Z,102391.13
2022-09-19T17:00:47.500Z,102390.31
2022-09-19T17:03:16.067Z,102391.69
2022-09-19T17:05:43.023Z,102389.28
2022-09-19T17:08:09.540Z,102389.84
2022-09-19T17:10:37.946Z,102388.47
2022-09-19T17:13:04.727Z,102396.81
2022-09-19T17:15:58.315Z,102393.31
2022-09-19T17:18:25.304Z,102399.75
2022-09-19T17:20:54.788Z,102398.44
2022-09-19T17:23:21.620Z,102399.75
2022-09-19T17:25:55.609Z,102401.09
2022-09-19T17:28:26.178Z,102407.28
2022-09-19T17:30:53.771Z,102411.00
2022-09-19T17:33:22.685Z,102411.56
2022-09-19T17:35:49.975Z,102413.44
2022-09-19T17:38:16.820Z,102415.59
2022-09-19T17:40:46.741Z,102418.81
2022-09-19T17:43:17.486Z,102414.53
2022-09-19T17:45:45.791Z,102419.34
2022-09-19T17:48:16.551Z,102415.88
2022-09-19T17:50:46.273Z,102422.56
2022-09-19T17:53:12.861Z,102419.09
2022-09-19T17:55:39.863Z,102428.47
2022-09-19T17:58:09.253Z,102419.13
2022-09-19T18:00:37.159Z,102420.97
2022-09-19T18:03:21.404Z,102420.19
2022-09-19T18:05:58.785Z,102416.19
2022-09-19T18:08:30.574Z,102416.44
2022-09-19T18:11:05.343Z,102422.03
2022-09-19T18:13:37.207Z,102422.34
2022-09-19T18:16:11.839Z,102423.94
2022-09-19T18:18:38.870Z,102427.94
2022-09-19T18:21:08.053Z,102443.44
2022-09-19T18:23:36.734Z,102438.41
2022-09-19T18:26:05.639Z,102435.19
2022-09-19T18:28:34.687Z,102438.38
2022-09-19T18:31:08.943Z,102445.88
2022-09-19T18:33:36.150Z,102433.06
2022-09-19T18:36:05.485Z,102447.47
2022-09-19T18:38:32.288Z,102452.84
2022-09-19T18:40:59.866Z,102456.03
2022-09-19T18:43:26.914Z,102459.25
2022-09-19T18:46:05.775Z,102453.38
2022-09-19T18:48:32.510Z,102456.31
2022-09-19T18:50:59.090Z,102454.72
2022-09-19T18:53:26.844Z,102454.97
2022-09-19T18:55:54.728Z,102455.22
2022-09-19T18:58:22.032Z,102457.38
2022-09-19T19:00:49.466Z,102456.81
2022-09-19T19:03:17.159Z,102459.50
2022-09-19T19:05:49.528Z,102462.72
2022-09-19T19:08:16.842Z,102456.03
2022-09-19T19:10:43.440Z,102463.78
2022-09-19T19:13:10.035Z,102468.03
2022-09-19T19:15:37.183Z,102466.72
2022-09-19T19:18:06.323Z,102474.69
2022-09-19T19:20:33.794Z,102468.78
2022-09-19T19:23:00.604Z,102470.38
2022-09-19T19:25:28.124Z,102468.25
2022-09-19T19:27:56.948Z,102472.78
2022-09-19T19:30:23.605Z,102467.97
2022-09-19T19:32:50.126Z,102469.31
2022-09-19T19:35:19.348Z,102469.81
2022-09-19T19:37:46.190Z,102468.50
2022-09-19T19:40:12.790Z,102468.75
2022-09-19T19:42:39.325Z,102465.81
2022-09-19T19:45:06.077Z,102469.25
2022-09-19T19:47:32.536Z,102474.34
2022-09-19T19:49:59.028Z,102476.72
2022-09-19T19:52:25.480Z,102473.75
2022-09-19T19:54:52.010Z,102481.47
2022-09-19T19:57:18.598Z,102474.53
2022-09-19T19:59:45.161Z,102476.13
2022-09-19T20:02:13.662Z,102475.84
2022-09-19T20:04:40.347Z,102475.28
2022-09-19T20:07:06.800Z,102478.22
2022-09-19T20:09:33.220Z,102480.88
2022-09-19T20:12:00.474Z,102477.66
2022-09-19T20:14:27.082Z,102477.66
2022-09-19T20:16:53.738Z,102485.13
2022-09-19T20:19:20.939Z,102484.03
2022-09-19T20:21:50.771Z,102486.41
2022-09-19T20:24:23.296Z,102486.94
2022-09-19T20:26:51.487Z,102488.78
2022-09-19T20:29:22.677Z,102490.66
2022-09-19T20:31:50.407Z,102490.91
2022-09-19T20:34:17.080Z,102489.84
2022-09-19T20:36:43.978Z,102490.41
2022-09-19T20:39:10.597Z,102496.53
2022-09-19T20:41:38.043Z,102490.94
2022-09-19T20:44:06.774Z,102494.41
2022-09-19T20:46:34.800Z,102495.19
2022-09-19T20:49:02.160Z,102496.00
2022-09-19T20:51:29.098Z,102491.75
2022-09-19T20:53:57.087Z,102491.19
2022-09-19T20:56:26.301Z,102489.59
2022-09-19T20:58:56.444Z,102487.44
2022-09-19T21:01:25.895Z,102484.53
2022-09-19T21:03:53.299Z,102499.75
2022-09-19T21:06:20.475Z,102495.72
2022-09-19T21:08:47.533Z,102498.91
2022-09-19T21:11:15.371Z,102501.84
2022-09-19T21:13:47.514Z,102497.56
2022-09-19T21:16:17.546Z,102502.34
2022-09-19T21:18:48.507Z,102492.75
2022-09-19T21:21:19.268Z,102505.25
2022-09-19T21:23:47.677Z,102504.72
2022-09-19T21:26:23.841Z,102506.34
2022-09-19T21:28:54.573Z,102499.38
2022-09-19T21:31:23.495Z,102496.47
2022-09-19T21:33:57.988Z,102496.47
2022-09-19T21:36:26.209Z,102494.59
2022-09-19T21:38:57.690Z,102499.13
2022-09-19T21:41:25.305Z,102502.06
2022-09-19T21:43:57.964Z,102498.59
2022-09-19T21:46:26.595Z,102498.59
2022-09-19T21:48:54.198Z,102505.00
2022-09-19T21:51:26.132Z,102502.34
2022-09-19T21:53:55.247Z,102501.78
2022-09-19T21:56:23.317Z,102507.38
2022-09-19T21:58:49.738Z,102505.75
2022-09-19T22:01:23.969Z,102506.03
2022-09-19T22:03:50.888Z,102501.72
2022-09-19T22:06:17.728Z,102501.44
2022-09-19T22:08:50.091Z,102503.84
2022-09-19T22:11:19.611Z,102507.78
2022-09-19T22:13:47.634Z,102502.75
2022-09-19T22:16:17.463Z,102507.25
2022-09-19T22:18:48.063Z,102498.72
2022-09-19T22:21:16.232Z,102508.84
2022-09-19T22:23:43.247Z,102511.75
2022-09-19T22:26:12.768Z,102507.75
2022-09-19T22:28:39.968Z,102512.25
2022-09-19T22:31:12.605Z,102508.00
2022-09-19T22:33:40.967Z,102519.47
2022-09-19T22:36:09.885Z,102517.88
2022-09-19T22:38:37.036Z,102510.13
2022-09-19T22:41:06.031Z,102510.13
2022-09-19T22:43:32.818Z,102515.19
2022-09-19T22:45:59.739Z,102512.25
2022-09-19T22:48:26.869Z,102502.41
2022-09-19T22:50:53.633Z,102503.75
2022-09-19T22:53:21.287Z,102500.03
2022-09-19T22:55:57.396Z,102502.97
2022-09-19T22:58:30.747Z,102510.13
2022-09-19T23:01:05.114Z,102509.34
2022-09-19T23:03:32.047Z,102507.75
2022-09-19T23:06:03.779Z,102512.53
2022-09-19T23:08:30.485Z,102511.97
2022-09-19T23:11:00.712Z,102513.28
2022-09-19T23:13:46.112Z,102514.59
2022-09-19T23:16:20.363Z,102508.72
2022-09-19T23:18:51.464Z,102519.91
2022-09-19T23:21:18.491Z,102512.38
2022-09-19T23:23:47.952Z,102518.47
2022-09-19T23:26:14.957Z,102521.38
2022-09-19T23:28:42.152Z,102507.75
2022-09-19T23:31:09.520Z,102518.66
2022-09-19T23:33:36.662Z,102514.66
2022-09-19T23:36:17.981Z,102509.81
2022-09-19T23:38:46.699Z,102513.25
2022-09-19T23:41:14.592Z,102517.47
2022-09-19T23:43:41.756Z,102509.16
2022-09-19T23:46:08.502Z,102506.19
2022-09-19T23:48:35.860Z,102508.06
2022-09-19T23:51:03.882Z,102504.59
2022-09-19T23:53:32.191Z,102499.50
2022-09-19T23:55:59.693Z,102511.50
2022-09-19T23:58:26.572Z,102512.81
